»·PEaware :: DCM205 KMRY-KSBA

DCM205 :: KMRY-KSBA

FLIGHT INFORMATION

Flight Status: Arrived
Operator:
DotCom
More flights by this operator :: More flights under this callsign
Pilot: Chris S. (2433)
Aircraft: BOEING 737-700
(B737)
More flights by this aircraft type
Origin: KMRY Monterey Peninsula
United States
Destination: KSBA Santa Barbara Mun
United States
More flights between these airports :: More routes between these airports
Route: +
File this flight plan on PilotEdge
Remarks: FF
Altitude:
(Current/Filed)
0ft
Speed:
(Current/Filed)
0kts
Departed: 09-Jun-20 12:45 PM
Arrived: 09-Jun-20 01:17 PM
Distance/Time
Traveled:
163nm/0:32
Distance/Time
To Go:
Arrived

Flight Plot

Page will automatically refresh every two minutes.

Flight plan parsing failed; only flown route is shown


Map Options




Map Legend


Flown Route
Filed Route
Departure Airport
Arrival Airport
Navaid (VOR, NDB)
Fix

Horizontal Profiles

Position Reports

Time Latitude Longitude Heading Altitude Ground
Speed
09-Jun-20 12:37 36.587932 -121.850829 238 213ft 0kts
09-Jun-20 12:38 36.587925 -121.850841 236 213ft 1kts
09-Jun-20 12:39 36.588048 -121.849850 112 213ft 11kts
09-Jun-20 12:40 36.586565 -121.845782 117 213ft 13kts
09-Jun-20 12:41 36.584958 -121.841244 114 213ft 17kts
09-Jun-20 12:42 36.583272 -121.836190 112 213ft 13kts
09-Jun-20 12:43 36.583339 -121.833527 290 213ft 5kts
09-Jun-20 12:44 36.593467 -121.863355 294 700ft 160kts
09-Jun-20 12:45 36.613212 -121.921860 293 2437ft 225kts
09-Jun-20 12:46 36.595164 -121.997546 202 5280ft 278kts
09-Jun-20 12:47 36.524366 -121.965746 142 8787ft 294kts
09-Jun-20 12:48 36.455737 -121.902240 142 11581ft 332kts
09-Jun-20 12:49 36.373668 -121.824343 142 12854ft 408kts
09-Jun-20 12:50 36.281793 -121.735409 142 15376ft 427kts
09-Jun-20 12:51 36.187785 -121.642130 141 16916ft 437kts
09-Jun-20 12:52 36.092401 -121.546425 141 17475ft 441kts
09-Jun-20 12:53 35.997255 -121.450809 141 17452ft 441kts
09-Jun-20 12:54 35.902186 -121.355724 141 17450ft 440kts
09-Jun-20 12:55 35.812180 -121.252881 136 17447ft 441kts
09-Jun-20 12:56 35.723737 -121.148346 136 17445ft 440kts
09-Jun-20 12:57 35.635409 -121.044307 136 17434ft 440kts
09-Jun-20 12:58 35.547078 -120.939547 136 17425ft 440kts
09-Jun-20 12:59 35.458711 -120.835613 136 17448ft 439kts
09-Jun-20 13:00 35.370224 -120.731982 136 17523ft 440kts
09-Jun-20 13:01 35.280956 -120.629844 138 17432ft 438kts
09-Jun-20 13:02 35.192882 -120.531007 137 15182ft 420kts
09-Jun-20 13:03 35.107161 -120.435061 137 13185ft 414kts
09-Jun-20 13:04 35.021871 -120.343705 139 11184ft 402kts
09-Jun-20 13:05 34.938572 -120.258652 139 9614ft 364kts
09-Jun-20 13:06 34.868827 -120.188201 139 9498ft 294kts
09-Jun-20 13:07 34.807347 -120.126417 139 9511ft 285kts
09-Jun-20 13:08 34.746891 -120.063483 135 9486ft 287kts
09-Jun-20 13:09 34.690590 -119.998369 135 8490ft 266kts
09-Jun-20 13:10 34.639265 -119.939022 135 7486ft 246kts
09-Jun-20 13:11 34.590509 -119.882908 134 6482ft 236kts
09-Jun-20 13:12 34.544507 -119.827834 134 5421ft 227kts
09-Jun-20 13:13 34.498929 -119.782657 149 3854ft 197kts
09-Jun-20 13:14 34.447166 -119.772305 193 1897ft 185kts
09-Jun-20 13:15 34.428092 -119.822029 265 236ft 163kts
09-Jun-20 13:16 34.427332 -119.851679 207 18ft 15kts
09-Jun-20 13:17 34.426575 -119.851558 122 18ft 10kts
09-Jun-20 13:18 34.426600 -119.843753 89 18ft 23kts
09-Jun-20 13:19 34.426192 -119.837832 165 18ft 12kts
09-Jun-20 13:20 34.425113 -119.837231 112 18ft 0kts
09-Jun-20 13:21 34.425113 -119.837231 112 18ft 0kts
09-Jun-20 13:22 34.425113 -119.837231 112 18ft 0kts
09-Jun-20 13:24 34.425113 -119.837231 112 18ft 0kts
09-Jun-20 13:25 34.425113 -119.837231 112 18ft 0kts
09-Jun-20 13:26 34.425113 -119.837231 112 18ft 0kts
09-Jun-20 13:27 34.425113 -119.837231 112 18ft 0kts
09-Jun-20 13:28 34.425113 -119.837231 112 18ft 0kts
09-Jun-20 13:29 34.425113 -119.837231 112 18ft 0kts
09-Jun-20 13:30 34.425113 -119.837231 112 18ft 0kts
09-Jun-20 13:31 34.425113 -119.837231 112 18ft 0kts

Navigation Log

Ident Type
Flight plan parsing failed, navigation log unavailable